createdAt,value
2019-02-11T00:00:50.523Z,79.90
2019-02-11T00:03:19.544Z,80.20
2019-02-11T00:05:48.569Z,80.80
2019-02-11T00:08:17.046Z,81.40
2019-02-11T00:10:46.098Z,83.20
2019-02-11T00:13:14.580Z,84.30
2019-02-11T00:15:43.034Z,87.40
2019-02-11T00:18:11.505Z,90.30
2019-02-11T00:20:39.969Z,90.80
2019-02-11T00:23:08.451Z,91.60
2019-02-11T00:25:36.910Z,91.50
2019-02-11T00:28:05.377Z,92.20
2019-02-11T00:30:34.320Z,92.70
2019-02-11T00:33:03.004Z,92.60
2019-02-11T00:35:31.464Z,92.90
2019-02-11T00:37:59.933Z,93.00
2019-02-11T00:40:28.402Z,92.90
2019-02-11T00:42:56.944Z,93.30
2019-02-11T00:45:25.420Z,93.40
2019-02-11T00:47:53.894Z,93.60
2019-02-11T00:50:22.364Z,93.60
2019-02-11T00:52:50.893Z,93.80
2019-02-11T00:55:19.373Z,94.00
2019-02-11T00:57:47.867Z,94.00
2019-02-11T01:00:16.326Z,94.00
2019-02-11T01:02:44.797Z,94.00
2019-02-11T01:05:13.327Z,94.00
2019-02-11T01:07:41.783Z,93.90
2019-02-11T01:10:10.994Z,94.00
2019-02-11T01:12:39.451Z,93.70
2019-02-11T01:15:10.173Z,93.50
2019-02-11T01:17:38.651Z,93.30
2019-02-11T01:20:09.769Z,93.10
2019-02-11T01:22:38.225Z,93.10
2019-02-11T01:25:07.957Z,93.20
2019-02-11T01:27:36.425Z,93.00
2019-02-11T01:30:12.099Z,93.00
2019-02-11T01:32:40.629Z,93.10
2019-02-11T01:35:09.257Z,93.10
2019-02-11T01:37:37.714Z,93.10
2019-02-11T01:40:10.808Z,93.20
2019-02-11T01:42:39.266Z,93.10
2019-02-11T01:45:10.479Z,93.10
2019-02-11T01:47:39.118Z,93.10
2019-02-11T01:50:12.291Z,93.10
2019-02-11T01:52:40.760Z,93.10
2019-02-11T01:55:09.495Z,93.10
2019-02-11T01:57:37.966Z,93.20
2019-02-11T02:00:09.845Z,93.10
2019-02-11T02:02:38.308Z,93.10
2019-02-11T02:05:08.123Z,93.10
2019-02-11T02:07:36.584Z,93.20
2019-02-11T02:10:13.884Z,93.30
2019-02-11T02:12:42.323Z,92.80
2019-02-11T02:15:13.529Z,93.10
2019-02-11T02:17:41.983Z,92.70
2019-02-11T02:20:14.629Z,92.70
2019-02-11T02:22:43.092Z,92.90
2019-02-11T02:25:12.082Z,93.00
2019-02-11T02:27:40.559Z,93.00
2019-02-11T02:30:13.539Z,93.30
2019-02-11T02:32:42.012Z,93.50
2019-02-11T02:35:10.528Z,93.70
2019-02-11T02:37:39.001Z,94.00
2019-02-11T02:40:09.388Z,94.00
2019-02-11T02:42:37.873Z,94.00
2019-02-11T02:45:08.382Z,94.10
2019-02-11T02:47:36.842Z,94.30
2019-02-11T02:50:07.956Z,94.30
2019-02-11T02:52:36.424Z,94.30
2019-02-11T02:55:06.464Z,94.30
2019-02-11T02:57:34.944Z,94.30
2019-02-11T03:00:04.080Z,94.00
2019-02-11T03:02:32.551Z,94.10
2019-02-11T03:05:01.008Z,93.90
2019-02-11T03:07:29.549Z,93.80
2019-02-11T03:09:58.004Z,93.60
2019-02-11T03:12:26.484Z,93.50
2019-02-11T03:14:54.945Z,93.30
2019-02-11T03:17:23.415Z,93.30
2019-02-11T03:19:51.879Z,93.20
2019-02-11T03:22:20.357Z,93.10
2019-02-11T03:24:48.821Z,93.10
2019-02-11T03:27:17.294Z,93.00
2019-02-11T03:29:45.841Z,93.00
2019-02-11T03:32:14.322Z,93.00
2019-02-11T03:34:42.777Z,93.00
2019-02-11T03:37:11.247Z,92.90
2019-02-11T03:39:39.704Z,92.70
2019-02-11T03:42:08.495Z,92.60
2019-02-11T03:44:36.973Z,92.70
2019-02-11T03:47:05.501Z,92.60
2019-02-11T03:49:33.959Z,92.50
2019-02-11T03:52:02.455Z,92.20
2019-02-11T03:54:30.910Z,92.20
2019-02-11T03:56:59.388Z,92.10
2019-02-11T03:59:28.064Z,92.00
2019-02-11T04:01:56.536Z,91.90
2019-02-11T04:04:25.007Z,92.00
2019-02-11T04:06:53.555Z,91.80
2019-02-11T04:09:22.031Z,91.60
2019-02-11T04:11:50.501Z,91.60
2019-02-11T04:14:24.897Z,91.40
2019-02-11T04:16:49.174Z,91.40
2019-02-11T04:19:17.712Z,91.20
2019-02-11T04:21:46.186Z,91.00
2019-02-11T04:24:14.652Z,91.00
2019-02-11T04:26:43.136Z,90.90
2019-02-11T04:29:11.602Z,91.00
2019-02-11T04:31:40.082Z,90.90
2019-02-11T04:34:08.631Z,91.00
2019-02-11T04:36:37.094Z,90.90
2019-02-11T04:39:06.215Z,91.00
2019-02-11T04:41:34.678Z,90.90
2019-02-11T04:44:03.179Z,90.90
2019-02-11T04:46:31.634Z,90.80
2019-02-11T04:49:00.088Z,90.80
2019-02-11T04:51:28.576Z,90.60
2019-02-11T04:53:57.028Z,90.50
2019-02-11T04:56:25.490Z,90.70
2019-02-11T04:58:53.969Z,90.70
2019-02-11T05:01:22.417Z,90.70
2019-02-11T05:03:50.899Z,90.80
2019-02-11T05:06:19.361Z,90.70
2019-02-11T05:08:47.811Z,90.60
2019-02-11T05:11:16.311Z,90.50
2019-02-11T05:13:44.771Z,90.50
2019-02-11T05:16:13.229Z,90.60
2019-02-11T05:18:41.717Z,90.20
2019-02-11T05:21:10.341Z,90.20
2019-02-11T05:23:38.821Z,90.00
2019-02-11T05:26:07.291Z,90.10
2019-02-11T05:28:35.758Z,89.90
2019-02-11T05:31:04.321Z,90.00
2019-02-11T05:33:32.779Z,90.00
2019-02-11T05:36:01.264Z,89.80
2019-02-11T05:38:29.731Z,89.90
2019-02-11T05:40:58.199Z,90.00
2019-02-11T05:43:26.664Z,90.00
2019-02-11T05:45:55.156Z,90.00
2019-02-11T05:48:23.677Z,90.00
2019-02-11T05:50:52.182Z,90.00
2019-02-11T05:53:20.635Z,90.00
2019-02-11T05:55:49.109Z,90.10
2019-02-11T05:58:17.562Z,90.00
2019-02-11T06:00:46.056Z,90.00
2019-02-11T06:03:14.514Z,90.10
2019-02-11T06:05:42.977Z,90.30
2019-02-11T06:08:11.468Z,90.30
2019-02-11T06:10:39.940Z,90.30
2019-02-11T06:13:08.436Z,90.30
2019-02-11T06:15:36.903Z,90.40
2019-02-11T06:18:05.362Z,90.40
2019-02-11T06:20:33.847Z,90.40
2019-02-11T06:23:02.332Z,90.40
2019-02-11T06:25:30.804Z,90.30
2019-02-11T06:27:59.267Z,90.20
2019-02-11T06:30:27.721Z,90.20
2019-02-11T06:32:56.204Z,90.50
2019-02-11T06:35:24.672Z,90.20
2019-02-11T06:37:53.214Z,90.20
2019-02-11T06:40:21.692Z,90.10
2019-02-11T06:42:50.160Z,90.10
2019-02-11T06:45:18.618Z,90.00
2019-02-11T06:47:47.096Z,90.10
2019-02-11T06:50:16.198Z,90.00
2019-02-11T06:52:44.680Z,90.00
2019-02-11T06:55:13.212Z,89.90
2019-02-11T06:57:41.685Z,89.90
2019-02-11T07:00:14.890Z,89.60
2019-02-11T07:02:43.389Z,89.60
2019-02-11T07:05:11.930Z,89.60
2019-02-11T07:07:40.388Z,89.40
2019-02-11T07:10:12.172Z,89.50
2019-02-11T07:12:40.652Z,89.40
2019-02-11T07:15:11.778Z,89.40
2019-02-11T07:17:40.239Z,89.20
2019-02-11T07:20:10.243Z,89.90
2019-02-11T07:22:38.712Z,88.90
2019-02-11T07:25:13.372Z,88.70
2019-02-11T07:27:41.847Z,87.80
2019-02-11T07:30:14.055Z,88.00
2019-02-11T07:32:42.524Z,87.80
2019-02-11T07:35:10.998Z,87.40
2019-02-11T07:37:39.459Z,87.50
2019-02-11T07:40:10.558Z,87.20
2019-02-11T07:42:49.425Z,86.90
2019-02-11T07:45:29.873Z,86.10
2019-02-11T07:47:52.661Z,86.10
2019-02-11T07:50:21.143Z,85.90
2019-02-11T07:52:49.623Z,85.80
2019-02-11T07:55:18.079Z,85.60
2019-02-11T07:57:46.559Z,85.50
2019-02-11T08:00:15.194Z,84.90
2019-02-11T08:02:43.664Z,84.50
2019-02-11T08:05:12.184Z,84.80
2019-02-11T08:07:40.670Z,84.50
2019-02-11T08:10:09.267Z,84.40
2019-02-11T08:12:37.742Z,84.30
2019-02-11T08:15:08.747Z,84.00
2019-02-11T08:17:37.216Z,83.60
2019-02-11T08:20:08.306Z,83.30
2019-02-11T08:22:36.769Z,82.60
2019-02-11T08:25:05.685Z,82.50
2019-02-11T08:27:34.157Z,82.60
2019-02-11T08:30:02.700Z,82.80
2019-02-11T08:32:31.159Z,82.60
2019-02-11T08:34:59.658Z,82.50
2019-02-11T08:37:28.116Z,82.20
2019-02-11T08:39:56.598Z,82.00
2019-02-11T08:42:25.056Z,81.60
2019-02-11T08:44:53.537Z,81.10
2019-02-11T08:47:22.001Z,81.00
2019-02-11T08:49:50.542Z,80.70
2019-02-11T08:52:19.080Z,80.10
2019-02-11T08:54:47.585Z,79.70
2019-02-11T08:57:16.612Z,79.80
2019-02-11T08:59:45.128Z,79.80
2019-02-11T09:02:13.594Z,79.30
2019-02-11T09:04:42.055Z,78.90
2019-02-11T09:07:11.235Z,78.10
2019-02-11T09:09:39.773Z,78.40
2019-02-11T09:12:08.834Z,78.60
2019-02-11T09:14:37.298Z,78.40
2019-02-11T09:17:10.257Z,78.60
2019-02-11T09:19:35.992Z,78.20
2019-02-11T09:22:07.718Z,78.50
2019-02-11T09:24:35.293Z,78.30
2019-02-11T09:27:03.752Z,78.40
2019-02-11T09:29:32.213Z,78.30
2019-02-11T09:32:00.701Z,77.20
2019-02-11T09:34:29.148Z,77.40
2019-02-11T09:36:57.642Z,77.60
2019-02-11T09:39:26.101Z,77.20
2019-02-11T09:41:54.581Z,76.90
2019-02-11T09:44:29.513Z,76.60
2019-02-11T09:46:53.768Z,76.90
2019-02-11T09:49:22.241Z,77.10
2019-02-11T09:51:51.258Z,77.60
2019-02-11T09:54:20.303Z,77.20
2019-02-11T09:56:48.775Z,77.50
2019-02-11T09:59:17.252Z,77.20
2019-02-11T10:01:45.753Z,76.60
2019-02-11T10:04:14.251Z,76.20
2019-02-11T10:06:43.285Z,76.30
2019-02-11T10:09:12.440Z,75.80
2019-02-11T10:11:41.508Z,75.30
2019-02-11T10:14:10.565Z,75.60
2019-02-11T10:16:39.689Z,75.60
2019-02-11T10:19:08.715Z,74.70
2019-02-11T10:21:37.800Z,74.70
2019-02-11T10:24:06.852Z,74.90
2019-02-11T10:26:35.878Z,74.80
2019-02-11T11:56:41.965Z,74.10
2019-02-11T11:59:10.416Z,73.00
2019-02-11T12:01:39.095Z,72.60
2019-02-11T12:04:07.830Z,73.30
2019-02-11T12:06:36.357Z,71.60
2019-02-11T12:09:06.281Z,70.60
2019-02-11T12:11:35.355Z,70.10
2019-02-11T12:14:04.530Z,69.80
2019-02-11T12:16:33.595Z,69.10
2019-02-11T12:19:02.627Z,70.50
2019-02-11T12:21:31.112Z,72.30
2019-02-11T12:24:00.243Z,76.30
2019-02-11T12:26:28.762Z,76.00
2019-02-11T12:28:57.226Z,76.20
2019-02-11T12:31:25.691Z,76.70
2019-02-11T12:33:54.167Z,77.00
2019-02-11T12:36:22.678Z,77.00
2019-02-11T12:38:51.211Z,76.80
2019-02-11T12:41:19.678Z,76.50
2019-02-11T12:43:48.175Z,75.80
2019-02-11T12:46:17.309Z,74.60
2019-02-11T12:48:46.336Z,74.20
2019-02-11T12:51:14.843Z,73.00
2019-02-11T12:53:43.383Z,71.50
2019-02-11T12:56:12.443Z,71.60
2019-02-11T12:58:41.528Z,71.70
2019-02-11T13:01:10.702Z,71.20
2019-02-11T13:03:39.790Z,69.00
2019-02-11T13:06:08.987Z,69.30
2019-02-11T13:08:38.095Z,69.60
2019-02-11T13:11:07.413Z,70.40
2019-02-11T13:13:36.642Z,71.10
2019-02-11T13:16:05.116Z,71.00
2019-02-11T13:18:38.856Z,71.10
2019-02-11T13:21:05.042Z,71.50
2019-02-11T13:23:34.143Z,71.60
2019-02-11T13:26:02.648Z,71.20
2019-02-11T13:28:31.813Z,70.90
2019-02-11T13:31:00.894Z,70.70
2019-02-11T13:33:30.000Z,71.60
2019-02-11T13:35:59.053Z,71.90
2019-02-11T13:38:28.189Z,71.20
2019-02-11T13:40:57.510Z,71.60
2019-02-11T13:43:26.634Z,71.00
2019-02-11T13:45:55.741Z,71.40
2019-02-11T13:48:24.864Z,69.60
2019-02-11T13:50:53.914Z,67.50
2019-02-11T13:53:22.466Z,66.00
2019-02-11T13:55:51.574Z,65.40
2019-02-11T13:58:20.649Z,66.20
2019-02-11T14:00:50.767Z,64.70
2019-02-11T14:03:20.521Z,65.00
2019-02-11T14:05:49.705Z,65.60
2019-02-11T14:08:18.346Z,66.60
2019-02-11T14:10:46.936Z,67.30
2019-02-11T14:13:16.351Z,67.50
2019-02-11T14:15:44.899Z,68.10
2019-02-11T14:18:15.588Z,67.50
2019-02-11T14:20:44.266Z,66.10
2019-02-11T14:23:13.370Z,65.10
2019-02-11T14:25:46.534Z,65.80
2019-02-11T14:28:12.919Z,66.50
2019-02-11T14:30:41.469Z,66.90
2019-02-11T14:33:10.479Z,66.10
2019-02-11T14:35:39.093Z,64.10
2019-02-11T14:38:07.655Z,63.60
2019-02-11T14:40:36.262Z,62.40
2019-02-11T14:43:05.356Z,61.30
2019-02-11T14:45:34.426Z,61.80
2019-02-11T14:48:03.028Z,61.20
2019-02-11T14:50:32.068Z,62.00
2019-02-11T14:53:00.522Z,63.40
2019-02-11T14:55:29.004Z,62.90
2019-02-11T14:57:58.095Z,63.10
2019-02-11T15:00:27.168Z,63.50
2019-02-11T15:02:55.620Z,63.40
2019-02-11T15:05:24.130Z,64.00
2019-02-11T15:07:52.685Z,64.60
2019-02-11T15:10:21.738Z,64.60
2019-02-11T15:12:50.200Z,69.80
2019-02-11T15:15:18.698Z,78.40
2019-02-11T15:17:48.711Z,85.70
2019-02-11T15:20:17.507Z,88.90
2019-02-11T15:22:45.985Z,90.00
2019-02-11T15:25:16.764Z,91.00
2019-02-11T15:27:45.366Z,91.00
2019-02-11T15:30:16.061Z,91.50
2019-02-11T15:32:44.541Z,91.50
2019-02-11T15:35:13.105Z,91.40
2019-02-11T15:37:41.668Z,91.30
2019-02-11T15:40:21.340Z,91.20
2019-02-11T15:42:49.821Z,91.70
2019-02-11T15:45:18.282Z,91.20
2019-02-11T15:47:46.764Z,91.00
2019-02-11T15:50:18.485Z,91.30
2019-02-11T15:52:46.966Z,91.40
2019-02-11T15:55:17.483Z,91.30
2019-02-11T15:57:45.970Z,91.20
2019-02-11T16:00:17.025Z,91.60
2019-02-11T16:02:45.591Z,91.90
2019-02-11T16:05:16.711Z,91.80
2019-02-11T16:07:45.649Z,91.60
2019-02-11T16:10:16.788Z,92.00
2019-02-11T16:12:45.275Z,92.20
2019-02-11T16:15:13.922Z,92.50
2019-02-11T16:17:42.415Z,92.50
2019-02-11T16:20:14.374Z,92.40
2019-02-11T16:22:43.351Z,92.70
2019-02-11T16:25:15.618Z,92.60
2019-02-11T16:27:44.161Z,92.40
2019-02-11T16:30:17.657Z,92.70
2019-02-11T16:32:46.215Z,92.30
2019-02-11T16:35:18.346Z,92.30
2019-02-11T16:37:47.104Z,92.10
2019-02-11T16:40:18.115Z,92.10
2019-02-11T16:42:46.743Z,92.30
2019-02-11T16:45:15.212Z,92.30
2019-02-11T16:47:43.666Z,92.50
2019-02-11T16:50:12.813Z,92.40
2019-02-11T16:52:41.287Z,92.40
2019-02-11T16:55:10.988Z,92.70
2019-02-11T16:57:39.449Z,92.30
2019-02-11T17:00:11.246Z,92.40
2019-02-11T17:02:39.707Z,92.10
2019-02-11T17:05:10.536Z,92.30
2019-02-11T17:07:41.895Z,92.10
2019-02-11T17:10:13.710Z,91.10
2019-02-11T17:12:42.184Z,91.60
2019-02-11T17:15:13.800Z,91.80
2019-02-11T17:17:42.700Z,91.50
2019-02-11T17:20:13.370Z,92.10
2019-02-11T17:22:41.937Z,92.00
2019-02-11T17:25:11.550Z,91.80
2019-02-11T17:27:40.019Z,92.10
2019-02-11T17:30:35.417Z,92.10
2019-02-11T17:33:03.971Z,92.40
2019-02-11T17:35:32.465Z,92.50
2019-02-11T17:38:00.996Z,92.30
2019-02-11T17:40:29.452Z,91.80
2019-02-11T17:42:57.940Z,92.00
2019-02-11T17:45:27.837Z,91.80
2019-02-11T17:47:56.318Z,92.20
2019-02-11T17:50:24.780Z,91.70
2019-02-11T17:52:59.094Z,91.90
2019-02-11T17:55:27.638Z,92.00
2019-02-11T17:57:56.102Z,91.80
2019-02-11T18:00:32.155Z,92.30
2019-02-11T18:03:00.609Z,92.20
2019-02-11T18:05:29.101Z,92.10
2019-02-11T18:07:57.565Z,91.70
2019-02-11T18:10:26.041Z,91.80
2019-02-11T18:12:54.506Z,91.90
2019-02-11T18:15:22.971Z,92.00
2019-02-11T18:17:51.425Z,92.20
2019-02-11T18:20:19.931Z,92.20
2019-02-11T18:22:48.451Z,92.00
2019-02-11T18:25:16.933Z,91.70
2019-02-11T18:27:45.397Z,91.70
2019-02-11T18:30:17.033Z,92.10
2019-02-11T18:32:45.675Z,91.80
2019-02-11T18:35:19.283Z,92.00
2019-02-11T18:37:47.827Z,91.40
2019-02-11T18:40:16.581Z,91.00
2019-02-11T18:42:45.114Z,90.80
2019-02-11T18:45:15.091Z,90.70
2019-02-11T18:47:43.631Z,90.90
2019-02-11T18:50:13.932Z,90.00
2019-02-11T18:52:42.571Z,90.20
2019-02-11T18:55:13.575Z,89.30
2019-02-11T18:57:42.063Z,89.50
2019-02-11T19:00:14.124Z,90.50
2019-02-11T19:02:42.825Z,91.00
2019-02-11T19:05:11.391Z,91.00
2019-02-11T19:07:39.975Z,90.00
2019-02-11T19:10:11.075Z,90.00
2019-02-11T19:12:39.617Z,89.80
2019-02-11T19:15:13.532Z,89.50
2019-02-11T19:17:42.187Z,88.20
2019-02-11T19:20:13.350Z,89.20
2019-02-11T19:22:41.834Z,90.10
2019-02-11T19:25:11.334Z,90.20
2019-02-11T19:27:39.818Z,90.30
2019-02-11T19:30:21.006Z,88.70
2019-02-11T19:32:49.940Z,89.90
2019-02-11T19:35:18.470Z,90.50
2019-02-11T19:37:47.013Z,90.10
2019-02-11T19:40:17.905Z,89.10
2019-02-11T19:42:46.576Z,90.20
2019-02-11T19:45:23.166Z,90.10
2019-02-11T19:47:51.715Z,90.00
2019-02-11T19:50:20.250Z,90.40
2019-02-11T19:52:48.801Z,90.00
2019-02-11T19:55:17.653Z,89.70
2019-02-11T19:57:46.187Z,90.30
2019-02-11T20:00:19.883Z,90.00
2019-02-11T20:02:49.292Z,89.40
2019-02-11T20:05:17.851Z,88.60
2019-02-11T20:07:46.463Z,88.60
2019-02-11T20:10:17.299Z,88.10
2019-02-11T20:12:45.759Z,88.70
2019-02-11T20:15:19.143Z,88.30
2019-02-11T20:17:47.602Z,88.80
2019-02-11T20:20:19.184Z,87.80
2019-02-11T20:22:47.813Z,88.50
2019-02-11T20:25:16.316Z,87.80
2019-02-11T20:27:44.791Z,86.50
2019-02-11T20:30:16.001Z,87.10
2019-02-11T20:32:44.484Z,87.10
2019-02-11T20:35:13.115Z,86.50
2019-02-11T20:37:41.588Z,85.40
2019-02-11T20:40:15.495Z,86.80
2019-02-11T20:42:44.143Z,86.50
2019-02-11T20:45:15.706Z,85.80
2019-02-11T20:47:44.245Z,85.60
2019-02-11T20:50:12.782Z,86.10
2019-02-11T20:52:41.258Z,85.80
2019-02-11T20:55:14.022Z,85.90
2019-02-11T20:57:43.470Z,87.00
2019-02-11T21:00:17.796Z,86.80
2019-02-11T21:02:46.263Z,86.00
2019-02-11T21:05:14.978Z,85.30
2019-02-11T21:07:43.456Z,86.10
2019-02-11T21:10:14.377Z,86.00
2019-02-11T21:12:42.856Z,85.60
2019-02-11T21:15:13.580Z,85.50
2019-02-11T21:17:42.186Z,85.50
2019-02-11T21:20:17.627Z,85.30
2019-02-11T21:22:43.886Z,85.80
2019-02-11T21:25:12.448Z,86.00
2019-02-11T21:27:41.002Z,86.20
2019-02-11T21:30:12.124Z,85.70
2019-02-11T21:32:40.597Z,85.30
2019-02-11T21:35:11.116Z,85.00
2019-02-11T21:37:40.029Z,85.20
2019-02-11T21:40:08.952Z,85.60
2019-02-11T21:42:37.432Z,85.50
2019-02-11T21:45:09.220Z,85.00
2019-02-11T21:47:37.689Z,85.60
2019-02-11T21:50:09.565Z,85.30
2019-02-11T21:52:38.030Z,86.10
2019-02-11T21:55:09.781Z,86.40
2019-02-11T21:57:38.246Z,86.40
2019-02-11T22:00:09.937Z,86.20
2019-02-11T22:02:38.454Z,86.60
2019-02-11T22:05:07.555Z,86.40
2019-02-11T22:07:36.045Z,86.00
2019-02-11T22:10:07.106Z,85.80
2019-02-11T22:12:35.580Z,86.00
2019-02-11T22:15:05.001Z,86.40
2019-02-11T22:17:33.577Z,86.80
2019-02-11T22:20:02.054Z,86.50
2019-02-11T22:22:30.533Z,87.00
2019-02-11T22:24:59.019Z,87.00
2019-02-11T22:27:27.495Z,86.70
2019-02-11T22:29:55.951Z,86.80
2019-02-11T22:32:24.593Z,86.80
2019-02-11T22:34:53.071Z,87.70
2019-02-11T22:37:21.534Z,88.20
2019-02-11T22:39:50.027Z,87.80
2019-02-11T22:42:18.484Z,88.30
2019-02-11T22:44:46.976Z,88.60
2019-02-11T22:47:15.454Z,88.60
2019-02-11T22:49:43.908Z,89.00
2019-02-11T22:52:12.389Z,88.60
2019-02-11T22:54:40.870Z,89.60
2019-02-11T22:57:09.354Z,89.60
2019-02-11T22:59:37.814Z,89.60
2019-02-11T23:02:06.386Z,90.00
2019-02-11T23:04:34.839Z,89.50
2019-02-11T23:07:03.415Z,89.80
2019-02-11T23:09:31.882Z,90.00
2019-02-11T23:12:00.350Z,90.00
2019-02-11T23:14:28.830Z,89.50
2019-02-11T23:16:57.298Z,89.30
2019-02-11T23:19:25.848Z,88.60
2019-02-11T23:21:54.333Z,88.60
2019-02-11T23:24:22.789Z,88.70
2019-02-11T23:26:51.268Z,88.60
2019-02-11T23:29:19.743Z,88.10
2019-02-11T23:31:48.228Z,88.80
2019-02-11T23:34:16.687Z,89.40
2019-02-11T23:36:45.163Z,88.80
2019-02-11T23:39:16.667Z,88.70
2019-02-11T23:41:45.110Z,88.30
2019-02-11T23:44:14.369Z,88.30
2019-02-11T23:46:42.835Z,88.00
2019-02-11T23:49:11.305Z,88.00
2019-02-11T23:51:41.082Z,88.20
2019-02-11T23:54:09.739Z,87.60
2019-02-11T23:56:38.235Z,87.20
2019-02-11T23:59:06.711Z,86.50
